Station info - map view · info · telemetry · weather · raw · status · beacons · messages · bulletins · browse · moving · my account
Callsign, ship name or locator: Clear       
It is possible to search using wildcards (*?) after a prefix. Example: OH*
APRS station N0DJR - show graphs
Map loading...
Comment: Greetings DE>N0DJR Home QTH Des Moine, IA 146.520 Monitoring
Mic-E message: En route
Location: 41°33.08' N 93°37.05' W - locator EN31EN52VH - show map - static map
3.4 miles South bearing 187° from Des Moines, Polk County, Iowa, United States [?]
6.1 miles Northeast bearing 31° from Norwalk, Warren County, Iowa, United States
6.8 miles East bearing 102° from West Des Moines, Polk County, Iowa, United States
92.2 miles Southwest bearing 226° from Waterloo, Black Hawk County, Iowa, United States
Last position: 2021-06-11 22:10:29 EDT (11d 2h38m ago)
2021-06-11 21:10:29 CDT local time at Des Moines, United States [?]
Altitude: 899 ft
Course: 176°
Speed: 0 MPH
Device: Yaesu: FTM-300D (rig)
Last path: N0DJR>TQ3S0X via qAR,WL7CLI
Positions stored: 1003
Other SSIDs: N0DJR-14
Stations near current position of N0DJR - show more
callsign distance last heard - EDT      callsign distance last heard - EDT
W0AK-11.2 miles 282°2021-06-23 00:41:54 W0IJJ-72.1 miles 213°2021-06-19 12:02:44
WX7UTE3.2 miles 359°2021-06-12 12:53:41 N0IUV-54.2 miles 324°2021-06-07 21:58:43
N0IUV-74.2 miles 324°2021-06-20 15:59:31 N0IUV4.3 miles 325°2021-06-20 01:28:06
N0IUV-104.3 miles 325°2021-06-22 21:12:54 KC0RAM-94.3 miles 317°2021-06-22 17:56:07
cw67354.6 miles 329°2021-06-23 00:45:14 W0DM-95.3 miles 359°2021-06-22 19:19:40
K0MRD-75.5 miles 212°2021-06-22 18:22:03 CW00055.6 miles 313°2021-06-23 00:46:32
CW0055.6 miles 314°2021-06-21 11:27:13 FW80445.6 miles 211°2021-06-23 00:47:01
DMXSVR4rA6.1 miles 91°2021-05-26 01:49:05 FW80336.1 miles 315°2021-06-23 00:48:05
WL7CLI-96.8 miles 38°2021-06-19 21:13:41 WL7CLI6.9 miles 39°2021-06-23 00:47:25
WLWCLI6.9 miles 39°2021-06-18 11:47:20 K0HTF-97.3 miles 311°2021-06-18 16:11:11
Stations which heard N0DJR directly on radio –
callsign pkts first heard - EDT last heard longest (tx => rx) longest at - EDT
KA2FNK 6 2021-06-03 10:48:12 2021-06-03 11:03:15 EM29SG > EM29PA 20.9 miles 223° 2021-06-03 10:48:12
W0JRT-3 4 2021-06-03 09:48:07 2021-06-03 10:04:55 EM29UO > EM29US 11.4 miles 2° 2021-06-03 10:04:55
DECATU 13 2021-06-03 13:52:49 2021-06-11 07:43:18 EM26TU > EM26SH 36.9 miles 186° 2021-06-11 07:42:08
WL7CLI 9 2021-06-11 22:01:09 2021-06-11 22:10:29 EN31EN > EN31FP 6.9 miles 39° 2021-06-11 22:09:53
WHTNY 16 2021-06-03 14:11:19 2021-06-11 07:06:40 EM25SW > EM36AJ 42.1 miles 42° 2021-06-06 10:09:29
N0AN-1 10 2021-06-03 07:45:18 2021-06-03 08:39:45 EN30CT > EN22XC 88.4 miles 354° 2021-06-03 08:39:45
CLRWTR 142 2021-06-03 14:41:01 2021-06-11 07:03:04 EM26VK > EM26UD 19.7 miles 188° 2021-06-03 14:41:01
WA0ROI-1 1 2021-06-11 22:01:50 2021-06-11 22:01:50 EN31EO > EN31DU 18.6 miles 350° 2021-06-11 22:01:50
STLPLZ 7 2021-06-03 10:55:28 2021-06-03 11:19:24 EM29RE > EM29QB 9.1 miles 197° 2021-06-03 10:55:28
W0AK-1 9 2021-06-03 07:09:05 2021-06-11 22:04:03 EN31CI > EN31EN 16.5 miles 26° 2021-06-03 08:00:39
CMHS 1 2021-06-03 11:15:20 2021-06-03 11:15:20 EM29RA > EM28QW 8.1 miles 222° 2021-06-03 11:15:20
LSBRG 32 2021-06-03 11:30:41 2021-06-03 12:26:21 EM28TB > EM28QN 37.7 miles 338° 2021-06-03 12:26:21
AA0OS-2 18 2021-06-03 08:17:37 2021-06-03 09:19:59 EN31CE > EN30AP 38.7 miles 192° 2021-06-03 08:17:37
KI0AU-1 9 2021-06-03 09:10:06 2021-06-03 09:49:11 EN30AL > EN20EB 90.8 miles 253° 2021-06-03 09:10:51
AA0OS-3 12 2021-06-03 07:42:12 2021-06-03 09:41:13 EM29WX > EN20WW 66.3 miles 358° 2021-06-03 09:41:13
KB0DXS 24 2021-06-11 07:26:44 2021-06-11 08:15:14 EM26SP > EM26RU 17.5 miles 341° 2021-06-11 07:26:44
ARKAN 55 2021-06-03 14:53:12 2021-06-11 06:53:55 EM25TW > EM26VE 19.0 miles 32° 2021-06-11 06:18:40
KD0YUJ 38 2021-06-03 09:50:12 2021-06-03 10:53:17 EM29VT > EM29UL 26.0 miles 194° 2021-06-03 09:50:12
KC0QLU-2 1 2021-06-03 09:26:39 2021-06-03 09:26:39 EN20XE > EM29OT 50.4 miles 237° 2021-06-03 09:26:39
KE0CZP-1 5 2021-06-03 13:58:58 2021-06-03 14:49:04 EM26SQ > EM26XN 23.0 miles 106° 2021-06-03 13:58:58
WB5L 5 2021-06-03 14:16:20 2021-06-11 07:18:16 EM26UM > EM26TK 6.1 miles 205° 2021-06-11 07:18:16
TRUHH 1 2021-06-03 10:57:34 2021-06-03 10:57:34 EM29RD > EM29RC 4.8 miles 189° 2021-06-03 10:57:34
KCVA 1 2021-06-03 11:23:27 2021-06-03 11:23:27 EM28RV > EM29RB 11.1 miles 359° 2021-06-03 11:23:27
SEKANS 82 2021-06-03 12:38:33 2021-06-11 09:12:45 EM26SS > EM27PK 47.5 miles 340° 2021-06-11 07:35:15
N0RJC-1 3 2021-06-03 10:45:10 2021-06-03 10:51:16 EM29SF > EM29SG 4.3 miles 20° 2021-06-03 10:51:16
N0CJ 3 2021-06-03 10:38:25 2021-06-03 11:09:06 EM29RC > EM29SG 14.7 miles 33° 2021-06-03 11:09:06
EDNBRG 1 2021-06-03 09:03:25 2021-06-03 09:03:25 EN30AL > EN30DB 30.7 miles 150° 2021-06-03 09:03:25
W0CBL-1 5 2021-06-03 08:37:39 2021-06-03 09:46:00 EM29WV > EN30RG 86.8 miles 73° 2021-06-03 09:46:00
W0IN 36 2021-06-03 13:10:06 2021-06-11 08:48:19 EM27UL > EM27RA 35.1 miles 202° 2021-06-11 08:48:19
BRMC 2 2021-06-03 11:25:29 2021-06-03 11:29:41 EM28RU > EM28RT 4.0 miles 162° 2021-06-03 11:25:29

Only position packets which were originated by the station are shown here. The range statistics show some extra long hops, because some digipeaters do not correctly add themselves to the digipeater path. Please check the raw packets.
About this site
This page shows real-time information collected from the Automatic Position Reporting System Internet network (APRS-IS). APRS is used by amateur (ham) radio operators to transmit real-time position information, weather data, telemetry and messages over the radio. A vehicle equipped with a GPS receiver, a VHF transmitter or HF transceiver and a small computer device called a tracker transmits it's location, speed and course in a small data packet, which is then received by a nearby iGate receiving site which forwards the packet on the Internet. Systems connected to the Internet can send information on the APRS-IS without a radio transmitter, or collect and display information transmitted anywhere in the world.
User guide · FAQ · Blog · Discussion group · Linking to aprs.fi · AIS sites · Service status · Database statistics · Advertising on aprs.fi · Technical details · API · Change log · Planned changes · Credits and thanks · Terms Of Service · iPhone/iPad APRS